KLOR/LOR METAR and TAF weather

Enter ICAO airport designator
Station Type Date Time Source
KLOR METAR 2022/01/18 06:58 UTC NOAA

KLOR 180658Z AUTO 00000KT 10SM CLR M02/M03 A3015 RMK AO2 SLP195 T10251029 FZRANO


Station Type Date Time Source
KLOR Decoded METAR 2022/01/18 06:58 UTC NOAA

Fort Rucker, Lowe Army Heliport, AL, United States (KLOR) 31-21-32N 085-44-54W 93M
Jan 18, 2022 - 01:58 AM EST / 2022.01.18 0658 UTC
Wind: Calm:0
Visibility: 10 mile(s):0
Sky conditions: clear
Temperature: 27.5 F (-2.5 C)
Dew Point: 26.8 F (-2.9 C)
Relative Humidity: 97%
Pressure (altimeter): 30.15 in. Hg (1020 hPa)
ob: KLOR 180658Z AUTO 00000KT 10SM CLR M02/M03 A3015 RMK AO2 SLP195 T10251029 FZRANO
cycle: 7

Station Type Date Time Source
KLOR TAF UTC NOAA

Error!

Example: see airport list